Archival Weather

Chicago O'Hare International

Chicago, Illinois (KORD)

Report from: Saturday, March 31, 2012 11:51 PM CDT
Current time: Monday, June 17, 2024 5:53 AM CDT

Current weather – Weather history – Daily summaries
Weather forecast

Temperature6.1°C (43.0°F)
Wind chill4.6°C (40.3°F)
Dew point3.3°C (37.9°F)
Winds 4 kts (2.1 m/s, 4.6 mph) East (80°)
Visibility8 mi. (12.9 km)
Clouds Scattered clouds 16,000 ft. (4,877 m)
Altimeter29.82 in.Hg (1010 mB)
Relative humidity82 %
Density altitude-848 ft. (-259 m)
Sea-level pressure101.0 kPa (1010 mB, 29.83 in.Hg)
Remarks System requires maintenance
Automated weather observing station with precipitation discriminator
Flight conditions Visual Meteorological Conditions
Raw data2012-04-01 04:51 KORD 010451Z 08004KT 8SM SCT160 06/03 A2982 RMK AO2 SLP100 T00610033 $
An error has occurred. This application may no longer respond until reloaded. Reload 🗙